sensor_id;sensor_type;location;lat;lon;timestamp;temperature;humidity
43949;DHT22;29429;51.074;13.764;2022-12-16T00:01:24;-3.20;99.90
43949;DHT22;29429;51.074;13.764;2022-12-16T00:03:53;-3.00;99.90
43949;DHT22;29429;51.074;13.764;2022-12-16T00:06:24;-3.10;99.90
43949;DHT22;29429;51.074;13.764;2022-12-16T00:08:54;-3.10;99.90
43949;DHT22;29429;51.074;13.764;2022-12-16T00:11:22;-3.10;99.90
43949;DHT22;29429;51.074;13.764;2022-12-16T00:13:49;-3.10;99.90
43949;DHT22;29429;51.074;13.764;2022-12-16T00:16:18;-3.00;99.90
43949;DHT22;29429;51.074;13.764;2022-12-16T00:18:47;-3.00;99.90
43949;DHT22;29429;51.074;13.764;2022-12-16T00:21:14;-3.00;99.90
43949;DHT22;29429;51.074;13.764;2022-12-16T00:23:44;-2.90;99.90
43949;DHT22;29429;51.074;13.764;2022-12-16T00:26:12;-3.00;99.90
43949;DHT22;29429;51.074;13.764;2022-12-16T00:28:40;-3.00;99.90
43949;DHT22;29429;51.074;13.764;2022-12-16T00:31:09;-3.00;99.90
43949;DHT22;29429;51.074;13.764;2022-12-16T00:33:36;-3.00;99.90
43949;DHT22;29429;51.074;13.764;2022-12-16T00:36:03;-3.10;99.90
43949;DHT22;29429;51.074;13.764;2022-12-16T00:38:31;-3.00;99.90
43949;DHT22;29429;51.074;13.764;2022-12-16T00:40:58;-3.00;99.90
43949;DHT22;29429;51.074;13.764;2022-12-16T00:43:25;-3.00;99.90
43949;DHT22;29429;51.074;13.764;2022-12-16T00:45:52;-3.00;99.90
43949;DHT22;29429;51.074;13.764;2022-12-16T00:48:19;-2.90;99.90
43949;DHT22;29429;51.074;13.764;2022-12-16T00:50:53;-2.90;99.90
43949;DHT22;29429;51.074;13.764;2022-12-16T00:53:23;-2.90;99.90
43949;DHT22;29429;51.074;13.764;2022-12-16T00:55:51;-2.90;99.90
43949;DHT22;29429;51.074;13.764;2022-12-16T00:58:26;-2.80;99.90
43949;DHT22;29429;51.074;13.764;2022-12-16T01:00:53;-2.80;99.90
43949;DHT22;29429;51.074;13.764;2022-12-16T01:03:20;-2.80;99.90
43949;DHT22;29429;51.074;13.764;2022-12-16T01:05:48;-2.90;99.90
43949;DHT22;29429;51.074;13.764;2022-12-16T01:08:16;-2.90;99.90
43949;DHT22;29429;51.074;13.764;2022-12-16T01:10:52;-2.90;99.90
43949;DHT22;29429;51.074;13.764;2022-12-16T01:13:22;-2.90;99.90
43949;DHT22;29429;51.074;13.764;2022-12-16T01:15:50;-2.90;99.90
43949;DHT22;29429;51.074;13.764;2022-12-16T01:18:18;-2.90;99.90
43949;DHT22;29429;51.074;13.764;2022-12-16T01:20:45;-2.90;99.90
43949;DHT22;29429;51.074;13.764;2022-12-16T01:23:12;-2.90;99.90
43949;DHT22;29429;51.074;13.764;2022-12-16T01:25:39;-2.90;99.90
43949;DHT22;29429;51.074;13.764;2022-12-16T01:28:06;-2.90;99.90
43949;DHT22;29429;51.074;13.764;2022-12-16T01:30:34;-2.80;99.90
43949;DHT22;29429;51.074;13.764;2022-12-16T01:33:00;-2.90;99.90
43949;DHT22;29429;51.074;13.764;2022-12-16T01:35:27;-2.90;99.90
43949;DHT22;29429;51.074;13.764;2022-12-16T01:38:14;-2.90;99.90
43949;DHT22;29429;51.074;13.764;2022-12-16T01:40:41;-2.90;99.90
43949;DHT22;29429;51.074;13.764;2022-12-16T01:43:13;-2.90;99.90
43949;DHT22;29429;51.074;13.764;2022-12-16T01:45:40;-2.90;99.90
43949;DHT22;29429;51.074;13.764;2022-12-16T01:48:35;-2.90;99.90
43949;DHT22;29429;51.074;13.764;2022-12-16T01:51:36;-3.00;99.90
43949;DHT22;29429;51.074;13.764;2022-12-16T01:54:21;-3.00;99.90
43949;DHT22;29429;51.074;13.764;2022-12-16T01:56:55;-3.00;99.90
43949;DHT22;29429;51.074;13.764;2022-12-16T01:59:28;-2.90;99.90
43949;DHT22;29429;51.074;13.764;2022-12-16T02:01:57;-2.80;99.90
43949;DHT22;29429;51.074;13.764;2022-12-16T02:04:25;-2.80;99.90
43949;DHT22;29429;51.074;13.764;2022-12-16T02:06:53;-2.80;99.90
43949;DHT22;29429;51.074;13.764;2022-12-16T02:09:20;-2.60;99.90
43949;DHT22;29429;51.074;13.764;2022-12-16T02:18:27;-2.70;99.90
43949;DHT22;29429;51.074;13.764;2022-12-16T02:30:22;-2.60;99.90
43949;DHT22;29429;51.074;13.764;2022-12-16T02:36:19;-2.60;99.90
43949;DHT22;29429;51.074;13.764;2022-12-16T02:38:57;-2.60;99.90
43949;DHT22;29429;51.074;13.764;2022-12-16T02:44:18;-2.60;99.90
43949;DHT22;29429;51.074;13.764;2022-12-16T02:46:52;-2.60;99.90
43949;DHT22;29429;51.074;13.764;2022-12-16T02:51:48;-2.60;99.90
43949;DHT22;29429;51.074;13.764;2022-12-16T02:54:16;-2.60;99.90
43949;DHT22;29429;51.074;13.764;2022-12-16T02:56:58;-2.60;99.90
43949;DHT22;29429;51.074;13.764;2022-12-16T02:59:50;-2.50;99.90
43949;DHT22;29429;51.074;13.764;2022-12-16T03:03:01;-2.60;99.90
43949;DHT22;29429;51.074;13.764;2022-12-16T03:05:45;-2.60;99.90
43949;DHT22;29429;51.074;13.764;2022-12-16T03:08:21;-2.70;99.90
43949;DHT22;29429;51.074;13.764;2022-12-16T03:10:57;-2.70;99.90
43949;DHT22;29429;51.074;13.764;2022-12-16T03:13:29;-2.70;99.90
43949;DHT22;29429;51.074;13.764;2022-12-16T03:16:02;-2.80;99.90
43949;DHT22;29429;51.074;13.764;2022-12-16T03:18:33;-2.80;99.90
43949;DHT22;29429;51.074;13.764;2022-12-16T03:21:07;-2.80;99.90
43949;DHT22;29429;51.074;13.764;2022-12-16T03:23:43;-2.80;99.90
43949;DHT22;29429;51.074;13.764;2022-12-16T03:29:50;-2.80;99.90
43949;DHT22;29429;51.074;13.764;2022-12-16T03:32:36;-2.80;99.90
43949;DHT22;29429;51.074;13.764;2022-12-16T03:35:33;-2.80;99.90
43949;DHT22;29429;51.074;13.764;2022-12-16T03:38:04;-2.80;99.90
43949;DHT22;29429;51.074;13.764;2022-12-16T03:40:35;-2.80;99.90
43949;DHT22;29429;51.074;13.764;2022-12-16T03:43:06;-2.80;99.90
43949;DHT22;29429;51.074;13.764;2022-12-16T03:45:37;-2.80;99.90
43949;DHT22;29429;51.074;13.764;2022-12-16T03:48:08;-2.80;99.90
43949;DHT22;29429;51.074;13.764;2022-12-16T03:50:37;-2.80;99.90
43949;DHT22;29429;51.074;13.764;2022-12-16T03:53:05;-2.80;99.90
43949;DHT22;29429;51.074;13.764;2022-12-16T03:55:34;-2.80;99.90
43949;DHT22;29429;51.074;13.764;2022-12-16T03:58:01;-2.80;99.90
43949;DHT22;29429;51.074;13.764;2022-12-16T04:00:28;-2.80;99.90
43949;DHT22;29429;51.074;13.764;2022-12-16T04:02:55;-2.80;99.90
43949;DHT22;29429;51.074;13.764;2022-12-16T04:05:22;-2.80;99.90
43949;DHT22;29429;51.074;13.764;2022-12-16T04:07:49;-2.80;99.90
43949;DHT22;29429;51.074;13.764;2022-12-16T04:10:17;-2.80;99.90
43949;DHT22;29429;51.074;13.764;2022-12-16T04:13:04;-2.80;99.90
43949;DHT22;29429;51.074;13.764;2022-12-16T04:15:49;-2.80;99.90
43949;DHT22;29429;51.074;13.764;2022-12-16T04:18:35;-2.80;99.90
43949;DHT22;29429;51.074;13.764;2022-12-16T04:21:21;-2.80;99.90
43949;DHT22;29429;51.074;13.764;2022-12-16T04:24:09;-2.80;99.90
43949;DHT22;29429;51.074;13.764;2022-12-16T04:26:45;-2.80;99.90
43949;DHT22;29429;51.074;13.764;2022-12-16T04:29:40;-2.80;99.90
43949;DHT22;29429;51.074;13.764;2022-12-16T04:32:26;-2.80;99.90
43949;DHT22;29429;51.074;13.764;2022-12-16T04:35:13;-2.80;99.90
43949;DHT22;29429;51.074;13.764;2022-12-16T04:37:59;-2.80;99.90
43949;DHT22;29429;51.074;13.764;2022-12-16T04:40:44;-2.80;99.90
43949;DHT22;29429;51.074;13.764;2022-12-16T04:43:30;-2.80;99.90
43949;DHT22;29429;51.074;13.764;2022-12-16T04:46:16;-2.80;99.90
43949;DHT22;29429;51.074;13.764;2022-12-16T04:49:02;-2.80;99.90
43949;DHT22;29429;51.074;13.764;2022-12-16T04:51:48;-2.70;99.90
43949;DHT22;29429;51.074;13.764;2022-12-16T04:54:33;-2.70;99.90
43949;DHT22;29429;51.074;13.764;2022-12-16T04:57:19;-2.70;99.90
43949;DHT22;29429;51.074;13.764;2022-12-16T05:00:05;-2.70;99.90
43949;DHT22;29429;51.074;13.764;2022-12-16T05:02:51;-2.70;99.90
43949;DHT22;29429;51.074;13.764;2022-12-16T05:05:37;-2.60;99.90
43949;DHT22;29429;51.074;13.764;2022-12-16T05:08:24;-2.60;99.90
43949;DHT22;29429;51.074;13.764;2022-12-16T05:11:10;-2.60;99.90
43949;DHT22;29429;51.074;13.764;2022-12-16T05:13:56;-2.60;99.90
43949;DHT22;29429;51.074;13.764;2022-12-16T05:16:41;-2.40;99.90
43949;DHT22;29429;51.074;13.764;2022-12-16T05:19:27;-2.60;99.90
43949;DHT22;29429;51.074;13.764;2022-12-16T05:22:12;-2.70;99.90
43949;DHT22;29429;51.074;13.764;2022-12-16T05:24:58;-2.60;99.90
43949;DHT22;29429;51.074;13.764;2022-12-16T05:27:43;-2.70;99.90
43949;DHT22;29429;51.074;13.764;2022-12-16T05:30:29;-2.60;99.90
43949;DHT22;29429;51.074;13.764;2022-12-16T05:33:14;-2.70;99.90
43949;DHT22;29429;51.074;13.764;2022-12-16T05:36:00;-2.70;99.90
43949;DHT22;29429;51.074;13.764;2022-12-16T05:39:28;-2.70;99.90
43949;DHT22;29429;51.074;13.764;2022-12-16T05:42:14;-2.70;99.90
43949;DHT22;29429;51.074;13.764;2022-12-16T05:44:59;-2.70;99.90
43949;DHT22;29429;51.074;13.764;2022-12-16T05:47:47;-2.70;99.90
43949;DHT22;29429;51.074;13.764;2022-12-16T05:50:33;-2.70;99.90
43949;DHT22;29429;51.074;13.764;2022-12-16T05:53:21;-2.70;99.90
43949;DHT22;29429;51.074;13.764;2022-12-16T05:56:06;-2.70;99.90
43949;DHT22;29429;51.074;13.764;2022-12-16T05:58:51;-2.70;99.90
43949;DHT22;29429;51.074;13.764;2022-12-16T06:01:37;-2.70;99.90
43949;DHT22;29429;51.074;13.764;2022-12-16T06:04:23;-2.70;99.90
43949;DHT22;29429;51.074;13.764;2022-12-16T06:07:08;-2.60;99.90
43949;DHT22;29429;51.074;13.764;2022-12-16T06:09:53;-2.50;99.90
43949;DHT22;29429;51.074;13.764;2022-12-16T06:12:39;-2.50;99.90
43949;DHT22;29429;51.074;13.764;2022-12-16T06:15:25;-2.40;99.90
43949;DHT22;29429;51.074;13.764;2022-12-16T06:18:10;-2.40;99.90
43949;DHT22;29429;51.074;13.764;2022-12-16T06:20:56;-2.30;99.90
43949;DHT22;29429;51.074;13.764;2022-12-16T06:23:41;-2.40;99.90
43949;DHT22;29429;51.074;13.764;2022-12-16T06:26:26;-2.40;99.90
43949;DHT22;29429;51.074;13.764;2022-12-16T06:34:29;-2.40;99.90
43949;DHT22;29429;51.074;13.764;2022-12-16T06:37:14;-2.40;99.90
43949;DHT22;29429;51.074;13.764;2022-12-16T06:40:01;-2.40;99.90
43949;DHT22;29429;51.074;13.764;2022-12-16T06:42:47;-2.40;99.90
43949;DHT22;29429;51.074;13.764;2022-12-16T06:45:32;-2.50;99.90
43949;DHT22;29429;51.074;13.764;2022-12-16T06:48:18;-2.50;99.90
43949;DHT22;29429;51.074;13.764;2022-12-16T06:51:04;-2.50;99.90
43949;DHT22;29429;51.074;13.764;2022-12-16T06:53:50;-2.50;99.90
43949;DHT22;29429;51.074;13.764;2022-12-16T06:56:35;-2.40;99.90
43949;DHT22;29429;51.074;13.764;2022-12-16T06:59:50;-2.30;99.90
43949;DHT22;29429;51.074;13.764;2022-12-16T07:02:36;-2.40;99.90
43949;DHT22;29429;51.074;13.764;2022-12-16T07:05:21;-2.30;99.90
43949;DHT22;29429;51.074;13.764;2022-12-16T07:08:26;-2.40;99.90
43949;DHT22;29429;51.074;13.764;2022-12-16T07:11:15;-2.10;99.90
43949;DHT22;29429;51.074;13.764;2022-12-16T07:14:00;-2.30;99.90
43949;DHT22;29429;51.074;13.764;2022-12-16T07:16:46;-2.20;99.90
43949;DHT22;29429;51.074;13.764;2022-12-16T07:19:32;-2.40;99.90
43949;DHT22;29429;51.074;13.764;2022-12-16T07:22:18;-2.20;99.90
43949;DHT22;29429;51.074;13.764;2022-12-16T07:25:23;-2.10;99.90
43949;DHT22;29429;51.074;13.764;2022-12-16T07:28:09;-2.10;99.90
43949;DHT22;29429;51.074;13.764;2022-12-16T07:30:55;-2.00;99.90
43949;DHT22;29429;51.074;13.764;2022-12-16T07:33:41;-1.90;99.90
43949;DHT22;29429;51.074;13.764;2022-12-16T07:36:27;-1.90;99.90
43949;DHT22;29429;51.074;13.764;2022-12-16T07:39:13;-1.80;99.90
43949;DHT22;29429;51.074;13.764;2022-12-16T07:41:59;-1.90;99.90
43949;DHT22;29429;51.074;13.764;2022-12-16T07:44:44;-1.80;99.90
43949;DHT22;29429;51.074;13.764;2022-12-16T07:47:30;-1.80;99.90
43949;DHT22;29429;51.074;13.764;2022-12-16T07:50:16;-1.70;99.90
43949;DHT22;29429;51.074;13.764;2022-12-16T07:53:02;-1.70;99.90
43949;DHT22;29429;51.074;13.764;2022-12-16T07:56:37;-1.70;99.90
43949;DHT22;29429;51.074;13.764;2022-12-16T07:59:25;-1.70;99.90
43949;DHT22;29429;51.074;13.764;2022-12-16T08:02:20;-1.60;99.90
43949;DHT22;29429;51.074;13.764;2022-12-16T08:05:06;-1.70;99.90
43949;DHT22;29429;51.074;13.764;2022-12-16T08:07:52;-1.70;99.90
43949;DHT22;29429;51.074;13.764;2022-12-16T08:10:52;-1.60;99.90
43949;DHT22;29429;51.074;13.764;2022-12-16T08:13:37;-1.60;99.90
43949;DHT22;29429;51.074;13.764;2022-12-16T08:16:42;-1.60;99.90
43949;DHT22;29429;51.074;13.764;2022-12-16T08:20:02;-1.60;99.90
43949;DHT22;29429;51.074;13.764;2022-12-16T08:22:48;-1.60;99.90
43949;DHT22;29429;51.074;13.764;2022-12-16T08:25:34;-1.40;99.90
43949;DHT22;29429;51.074;13.764;2022-12-16T08:28:21;-1.60;99.90
43949;DHT22;29429;51.074;13.764;2022-12-16T08:31:06;-1.60;99.90
43949;DHT22;29429;51.074;13.764;2022-12-16T08:33:52;-1.10;99.90
43949;DHT22;29429;51.074;13.764;2022-12-16T08:36:38;-1.50;99.90
43949;DHT22;29429;51.074;13.764;2022-12-16T08:39:30;-1.50;99.90
43949;DHT22;29429;51.074;13.764;2022-12-16T08:42:35;-1.30;99.90
43949;DHT22;29429;51.074;13.764;2022-12-16T08:45:22;-1.50;99.90
43949;DHT22;29429;51.074;13.764;2022-12-16T08:48:08;-1.50;99.90
43949;DHT22;29429;51.074;13.764;2022-12-16T08:50:54;-1.50;99.90
43949;DHT22;29429;51.074;13.764;2022-12-16T08:53:40;-1.50;99.90
43949;DHT22;29429;51.074;13.764;2022-12-16T08:56:49;-1.40;99.90
43949;DHT22;29429;51.074;13.764;2022-12-16T08:59:49;-1.40;99.90
43949;DHT22;29429;51.074;13.764;2022-12-16T09:02:46;-1.30;99.90
43949;DHT22;29429;51.074;13.764;2022-12-16T09:05:44;-1.30;99.90
43949;DHT22;29429;51.074;13.764;2022-12-16T09:08:30;-1.20;99.90
43949;DHT22;29429;51.074;13.764;2022-12-16T09:11:18;-1.20;99.90
43949;DHT22;29429;51.074;13.764;2022-12-16T09:14:24;-1.10;99.90
43949;DHT22;29429;51.074;13.764;2022-12-16T09:17:12;-1.10;99.90
43949;DHT22;29429;51.074;13.764;2022-12-16T09:20:02;-1.00;99.90
43949;DHT22;29429;51.074;13.764;2022-12-16T09:22:48;-0.90;99.90
43949;DHT22;29429;51.074;13.764;2022-12-16T09:25:34;-0.90;99.90
43949;DHT22;29429;51.074;13.764;2022-12-16T09:28:21;-0.80;99.90
43949;DHT22;29429;51.074;13.764;2022-12-16T09:31:11;-0.60;99.90
43949;DHT22;29429;51.074;13.764;2022-12-16T09:33:56;-0.50;99.90
43949;DHT22;29429;51.074;13.764;2022-12-16T09:36:42;-0.50;99.90
43949;DHT22;29429;51.074;13.764;2022-12-16T09:39:27;-0.40;99.90
43949;DHT22;29429;51.074;13.764;2022-12-16T09:49:27;0.00;99.90
43949;DHT22;29429;51.074;13.764;2022-12-16T09:52:43;-0.10;99.90
43949;DHT22;29429;51.074;13.764;2022-12-16T09:55:40;0.00;99.90
43949;DHT22;29429;51.074;13.764;2022-12-16T09:58:31;0.00;99.90
43949;DHT22;29429;51.074;13.764;2022-12-16T10:01:36;0.00;99.90
43949;DHT22;29429;51.074;13.764;2022-12-16T10:05:14;0.00;99.90
43949;DHT22;29429;51.074;13.764;2022-12-16T10:08:56;0.10;99.90
43949;DHT22;29429;51.074;13.764;2022-12-16T10:14:37;0.20;99.90
43949;DHT22;29429;51.074;13.764;2022-12-16T10:17:30;0.60;99.90
43949;DHT22;29429;51.074;13.764;2022-12-16T10:20:22;0.30;99.90
43949;DHT22;29429;51.074;13.764;2022-12-16T10:26:26;0.30;99.90
43949;DHT22;29429;51.074;13.764;2022-12-16T10:29:23;0.40;99.90
43949;DHT22;29429;51.074;13.764;2022-12-16T10:32:33;0.40;99.90
43949;DHT22;29429;51.074;13.764;2022-12-16T10:35:34;0.40;99.90
43949;DHT22;29429;51.074;13.764;2022-12-16T10:41:43;0.40;99.90
43949;DHT22;29429;51.074;13.764;2022-12-16T10:44:57;0.40;99.90
43949;DHT22;29429;51.074;13.764;2022-12-16T10:47:45;0.50;99.90
43949;DHT22;29429;51.074;13.764;2022-12-16T10:50:31;0.40;99.90
43949;DHT22;29429;51.074;13.764;2022-12-16T10:53:35;0.20;99.90
43949;DHT22;29429;51.074;13.764;2022-12-16T10:59:49;0.00;99.90
43949;DHT22;29429;51.074;13.764;2022-12-16T11:02:34;0.00;99.90
43949;DHT22;29429;51.074;13.764;2022-12-16T11:05:34;0.10;99.90
43949;DHT22;29429;51.074;13.764;2022-12-16T11:11:26;0.10;99.90
43949;DHT22;29429;51.074;13.764;2022-12-16T11:14:29;0.00;99.90
43949;DHT22;29429;51.074;13.764;2022-12-16T11:17:35;0.00;99.90
43949;DHT22;29429;51.074;13.764;2022-12-16T11:20:22;0.00;99.90
43949;DHT22;29429;51.074;13.764;2022-12-16T11:32:30;0.00;99.90
43949;DHT22;29429;51.074;13.764;2022-12-16T11:35:20;0.00;99.90
43949;DHT22;29429;51.074;13.764;2022-12-16T11:38:25;0.10;99.90
43949;DHT22;29429;51.074;13.764;2022-12-16T11:41:26;0.20;99.90
43949;DHT22;29429;51.074;13.764;2022-12-16T11:44:21;0.20;99.90
43949;DHT22;29429;51.074;13.764;2022-12-16T11:47:32;0.30;99.90
43949;DHT22;29429;51.074;13.764;2022-12-16T11:50:24;0.30;99.90
43949;DHT22;29429;51.074;13.764;2022-12-16T11:53:34;0.20;99.90
43949;DHT22;29429;51.074;13.764;2022-12-16T11:56:41;0.20;99.90
43949;DHT22;29429;51.074;13.764;2022-12-16T11:59:37;0.10;99.90
43949;DHT22;29429;51.074;13.764;2022-12-16T12:09:16;-0.10;99.90
43949;DHT22;29429;51.074;13.764;2022-12-16T12:12:27;-0.20;99.90
43949;DHT22;29429;51.074;13.764;2022-12-16T12:15:32;-0.30;99.90
43949;DHT22;29429;51.074;13.764;2022-12-16T12:18:56;-0.40;99.90
43949;DHT22;29429;51.074;13.764;2022-12-16T12:21:54;-0.40;99.90
43949;DHT22;29429;51.074;13.764;2022-12-16T12:25:02;-0.50;99.90
43949;DHT22;29429;51.074;13.764;2022-12-16T12:34:51;-0.90;99.90
43949;DHT22;29429;51.074;13.764;2022-12-16T12:41:23;-1.00;99.90
43949;DHT22;29429;51.074;13.764;2022-12-16T12:44:41;-1.00;99.90
43949;DHT22;29429;51.074;13.764;2022-12-16T12:47:31;-1.10;99.90
43949;DHT22;29429;51.074;13.764;2022-12-16T12:50:56;-1.20;99.90
43949;DHT22;29429;51.074;13.764;2022-12-16T12:54:32;-1.20;99.90
43949;DHT22;29429;51.074;13.764;2022-12-16T12:57:18;-1.30;99.90
43949;DHT22;29429;51.074;13.764;2022-12-16T13:06:39;-1.20;99.90
43949;DHT22;29429;51.074;13.764;2022-12-16T13:09:32;-1.30;99.90
43949;DHT22;29429;51.074;13.764;2022-12-16T13:12:28;-1.50;99.90
43949;DHT22;29429;51.074;13.764;2022-12-16T13:15:20;-1.60;99.90
43949;DHT22;29429;51.074;13.764;2022-12-16T13:18:27;-1.60;99.90
43949;DHT22;29429;51.074;13.764;2022-12-16T13:24:39;-1.70;99.90
43949;DHT22;29429;51.074;13.764;2022-12-16T13:27:49;-1.80;99.90
43949;DHT22;29429;51.074;13.764;2022-12-16T13:30:59;-1.80;99.90
43949;DHT22;29429;51.074;13.764;2022-12-16T13:33:52;-1.90;99.90
43949;DHT22;29429;51.074;13.764;2022-12-16T13:36:39;-1.90;99.90
43949;DHT22;29429;51.074;13.764;2022-12-16T13:39:29;-1.80;99.90
43949;DHT22;29429;51.074;13.764;2022-12-16T13:48:28;-1.60;99.90
43949;DHT22;29429;51.074;13.764;2022-12-16T13:54:41;-1.50;99.90
43949;DHT22;29429;51.074;13.764;2022-12-16T13:57:41;-1.60;99.90
43949;DHT22;29429;51.074;13.764;2022-12-16T14:00:32;-1.70;99.90
43949;DHT22;29429;51.074;13.764;2022-12-16T14:03:38;-1.90;99.90
43949;DHT22;29429;51.074;13.764;2022-12-16T14:06:29;-2.10;99.90
43949;DHT22;29429;51.074;13.764;2022-12-16T14:25:21;-2.50;99.90
43949;DHT22;29429;51.074;13.764;2022-12-16T14:28:34;-2.60;99.90
43949;DHT22;29429;51.074;13.764;2022-12-16T14:31:35;-2.60;99.90
43949;DHT22;29429;51.074;13.764;2022-12-16T14:34:40;-2.60;99.90
43949;DHT22;29429;51.074;13.764;2022-12-16T14:37:32;-2.70;99.90
43949;DHT22;29429;51.074;13.764;2022-12-16T14:40:19;-2.80;99.90
43949;DHT22;29429;51.074;13.764;2022-12-16T14:43:24;-2.80;99.90
43949;DHT22;29429;51.074;13.764;2022-12-16T14:46:27;-2.80;99.90
43949;DHT22;29429;51.074;13.764;2022-12-16T14:49:21;-2.90;99.90
43949;DHT22;29429;51.074;13.764;2022-12-16T14:52:23;-2.90;99.90
43949;DHT22;29429;51.074;13.764;2022-12-16T14:55:31;-2.90;99.90
43949;DHT22;29429;51.074;13.764;2022-12-16T14:58:23;-2.90;99.90
43949;DHT22;29429;51.074;13.764;2022-12-16T15:01:16;-3.00;99.90
43949;DHT22;29429;51.074;13.764;2022-12-16T15:04:13;-3.00;99.90
43949;DHT22;29429;51.074;13.764;2022-12-16T15:07:11;-3.00;99.90
43949;DHT22;29429;51.074;13.764;2022-12-16T15:10:02;-3.10;99.90
43949;DHT22;29429;51.074;13.764;2022-12-16T15:12:48;-3.20;99.90
43949;DHT22;29429;51.074;13.764;2022-12-16T15:15:42;-3.20;99.90
43949;DHT22;29429;51.074;13.764;2022-12-16T15:18:34;-3.10;99.90
43949;DHT22;29429;51.074;13.764;2022-12-16T15:21:24;-3.10;99.90
43949;DHT22;29429;51.074;13.764;2022-12-16T15:24:15;-3.10;99.90
43949;DHT22;29429;51.074;13.764;2022-12-16T15:30:43;-3.00;99.90
43949;DHT22;29429;51.074;13.764;2022-12-16T15:33:39;-3.00;99.90
43949;DHT22;29429;51.074;13.764;2022-12-16T15:36:49;-3.00;99.90
43949;DHT22;29429;51.074;13.764;2022-12-16T15:39:36;-3.00;99.90
43949;DHT22;29429;51.074;13.764;2022-12-16T15:42:27;-3.00;99.90
43949;DHT22;29429;51.074;13.764;2022-12-16T15:45:35;-3.00;99.90
43949;DHT22;29429;51.074;13.764;2022-12-16T15:48:27;-3.00;99.90
43949;DHT22;29429;51.074;13.764;2022-12-16T15:54:30;-3.00;99.90
43949;DHT22;29429;51.074;13.764;2022-12-16T16:00:28;-3.00;99.90
43949;DHT22;29429;51.074;13.764;2022-12-16T16:03:29;-3.00;99.90
43949;DHT22;29429;51.074;13.764;2022-12-16T16:06:23;-3.10;99.90
43949;DHT22;29429;51.074;13.764;2022-12-16T16:09:18;-3.10;99.90
43949;DHT22;29429;51.074;13.764;2022-12-16T16:12:15;-3.10;99.90
43949;DHT22;29429;51.074;13.764;2022-12-16T16:15:05;-3.20;99.90
43949;DHT22;29429;51.074;13.764;2022-12-16T16:17:59;-3.20;99.90
43949;DHT22;29429;51.074;13.764;2022-12-16T16:20:48;-3.20;99.90
43949;DHT22;29429;51.074;13.764;2022-12-16T16:23:36;-3.30;99.90
43949;DHT22;29429;51.074;13.764;2022-12-16T16:26:26;-3.30;99.90
43949;DHT22;29429;51.074;13.764;2022-12-16T16:29:13;-3.30;99.90
43949;DHT22;29429;51.074;13.764;2022-12-16T16:32:01;-3.30;99.90
43949;DHT22;29429;51.074;13.764;2022-12-16T16:34:51;-3.30;99.90
43949;DHT22;29429;51.074;13.764;2022-12-16T16:37:39;-3.30;99.90
43949;DHT22;29429;51.074;13.764;2022-12-16T16:40:35;-3.30;99.90
43949;DHT22;29429;51.074;13.764;2022-12-16T16:43:24;-3.30;99.90
43949;DHT22;29429;51.074;13.764;2022-12-16T16:46:36;-3.30;99.90
43949;DHT22;29429;51.074;13.764;2022-12-16T16:49:30;-3.30;99.90
43949;DHT22;29429;51.074;13.764;2022-12-16T16:52:24;-3.20;99.90
43949;DHT22;29429;51.074;13.764;2022-12-16T16:55:16;-3.30;99.90
43949;DHT22;29429;51.074;13.764;2022-12-16T16:58:30;-3.30;99.90
43949;DHT22;29429;51.074;13.764;2022-12-16T17:01:19;-3.30;99.90
43949;DHT22;29429;51.074;13.764;2022-12-16T17:04:06;-3.30;99.90
43949;DHT22;29429;51.074;13.764;2022-12-16T17:06:53;-3.30;99.90
43949;DHT22;29429;51.074;13.764;2022-12-16T17:09:39;-3.30;99.90
43949;DHT22;29429;51.074;13.764;2022-12-16T17:12:28;-3.30;99.90
43949;DHT22;29429;51.074;13.764;2022-12-16T17:15:38;-3.30;99.90
43949;DHT22;29429;51.074;13.764;2022-12-16T17:18:25;-3.30;99.90
43949;DHT22;29429;51.074;13.764;2022-12-16T17:21:18;-3.30;99.90
43949;DHT22;29429;51.074;13.764;2022-12-16T17:24:05;-3.30;99.90
43949;DHT22;29429;51.074;13.764;2022-12-16T17:26:52;-3.30;99.90
43949;DHT22;29429;51.074;13.764;2022-12-16T17:29:39;-3.20;99.90
43949;DHT22;29429;51.074;13.764;2022-12-16T17:32:27;-3.20;99.90
43949;DHT22;29429;51.074;13.764;2022-12-16T17:35:13;-3.20;99.90
43949;DHT22;29429;51.074;13.764;2022-12-16T17:37:58;-3.20;99.90
43949;DHT22;29429;51.074;13.764;2022-12-16T17:41:04;-3.20;99.90
43949;DHT22;29429;51.074;13.764;2022-12-16T17:44:13;-3.20;99.90
43949;DHT22;29429;51.074;13.764;2022-12-16T17:47:05;-3.10;99.90
43949;DHT22;29429;51.074;13.764;2022-12-16T17:49:51;-3.00;99.90
43949;DHT22;29429;51.074;13.764;2022-12-16T17:52:44;-3.10;99.90
43949;DHT22;29429;51.074;13.764;2022-12-16T17:55:37;-3.20;99.90
43949;DHT22;29429;51.074;13.764;2022-12-16T17:58:40;-3.10;99.90
43949;DHT22;29429;51.074;13.764;2022-12-16T18:01:50;-3.10;99.90
43949;DHT22;29429;51.074;13.764;2022-12-16T18:04:49;-3.00;99.90
43949;DHT22;29429;51.074;13.764;2022-12-16T18:07:50;-3.10;99.90
43949;DHT22;29429;51.074;13.764;2022-12-16T18:10:38;-3.10;99.90
43949;DHT22;29429;51.074;13.764;2022-12-16T18:13:29;-3.00;99.90
43949;DHT22;29429;51.074;13.764;2022-12-16T18:16:19;-3.00;99.90
43949;DHT22;29429;51.074;13.764;2022-12-16T18:19:05;-3.00;99.90
43949;DHT22;29429;51.074;13.764;2022-12-16T18:22:08;-3.00;99.90
43949;DHT22;29429;51.074;13.764;2022-12-16T18:24:57;-3.00;99.90
43949;DHT22;29429;51.074;13.764;2022-12-16T18:27:43;-3.00;99.90
43949;DHT22;29429;51.074;13.764;2022-12-16T18:30:29;-3.00;99.90
43949;DHT22;29429;51.074;13.764;2022-12-16T18:33:18;-3.00;99.90
43949;DHT22;29429;51.074;13.764;2022-12-16T18:36:05;-3.00;99.90
43949;DHT22;29429;51.074;13.764;2022-12-16T18:38:51;-3.00;99.90
43949;DHT22;29429;51.074;13.764;2022-12-16T18:41:43;-3.00;99.90
43949;DHT22;29429;51.074;13.764;2022-12-16T18:44:31;-3.00;99.90
43949;DHT22;29429;51.074;13.764;2022-12-16T18:47:26;-3.00;99.90
43949;DHT22;29429;51.074;13.764;2022-12-16T18:50:12;-3.00;99.90
43949;DHT22;29429;51.074;13.764;2022-12-16T18:53:04;-2.90;99.90
43949;DHT22;29429;51.074;13.764;2022-12-16T18:56:07;-2.90;99.90
43949;DHT22;29429;51.074;13.764;2022-12-16T18:58:54;-2.90;99.90
43949;DHT22;29429;51.074;13.764;2022-12-16T19:01:41;-2.90;99.90
43949;DHT22;29429;51.074;13.764;2022-12-16T19:04:27;-2.90;99.90
43949;DHT22;29429;51.074;13.764;2022-12-16T19:07:12;-2.90;99.90
43949;DHT22;29429;51.074;13.764;2022-12-16T19:09:59;-2.90;99.90
43949;DHT22;29429;51.074;13.764;2022-12-16T19:12:45;-2.90;99.90
43949;DHT22;29429;51.074;13.764;2022-12-16T19:15:30;-2.90;99.90
43949;DHT22;29429;51.074;13.764;2022-12-16T19:18:16;-2.90;99.90
43949;DHT22;29429;51.074;13.764;2022-12-16T19:21:02;-2.90;99.90
43949;DHT22;29429;51.074;13.764;2022-12-16T19:23:48;-2.90;99.90
43949;DHT22;29429;51.074;13.764;2022-12-16T19:26:33;-2.90;99.90
43949;DHT22;29429;51.074;13.764;2022-12-16T19:29:22;-2.80;99.90
43949;DHT22;29429;51.074;13.764;2022-12-16T19:32:08;-2.80;99.90
43949;DHT22;29429;51.074;13.764;2022-12-16T19:34:54;-2.80;99.90